Logan Peak - 24 Hour Table
Date & TimeSolar
Radiation
(W/m²)
Wind
Speed
(mph)
Wind
Direction
(degrees)
Air
Temperature
(°F)
Relative
Humidity
(%)
Barometeric
Pressure
(inHg)
2019/04/18 13:00 910 12.4 311 28.5 100 30.03
2019/04/18 12:00 888 11.9 303 29.3 100 30.03
2019/04/18 11:00 812 11.8 313 30.5 100 30.03
2019/04/18 10:00 686 13.2 324 28.1 100 30.02
2019/04/18 09:00 522 16.3 323 27.4 100 30.00
2019/04/18 08:00 345 18.7 325 26.3 100 30.00
2019/04/18 07:00 127 19.0 319 25.0 100 29.98
2019/04/18 06:00 7 22.4 317 24.0 100 29.97
2019/04/18 05:00 0 27.2 298 23.9 100 29.96
2019/04/18 04:00 0 26.9 296 24.1 100 29.97
2019/04/18 03:00 0 25.6 289 24.6 100 29.94
2019/04/18 02:00 0 24.0 289 25.2 100 29.94
2019/04/18 01:00 0 22.6 281 26.6 100 29.94
2019/04/18 00:00 0 19.9 274 27.7 100 29.94
2019/04/17 23:00 0 20.4 283 28.0 100 29.93
2019/04/17 22:00 0 18.9 299 28.1 100 29.93
2019/04/17 21:00 0 15.7 324 27.9 100 29.93
2019/04/17 20:00 0 18.2 305 27.6 100 29.91
2019/04/17 19:00 15 20.8 307 27.4 100 29.89
2019/04/17 18:00 52 17.9 296 27.3 100 29.89
2019/04/17 17:00 96 17.8 273 27.2 100 29.89
2019/04/17 16:00 171 15.3 281 27.5 100 29.87
2019/04/17 15:00 205 18.8 298 26.6 100 29.87
2019/04/17 14:00 296 15.7 291 27.0 100 29.87